sensor_id;sensor_type;location;lat;lon;timestamp;P1;durP1;ratioP1;P2;durP2;ratioP2
9958;SDS011;5019;48.012;7.812;2023-05-09T00:00:11;3.50;;;1.87;;
9958;SDS011;5019;48.012;7.812;2023-05-09T00:02:37;1.80;;;1.70;;
9958;SDS011;5019;48.012;7.812;2023-05-09T00:05:04;2.03;;;1.87;;
9958;SDS011;5019;48.012;7.812;2023-05-09T00:07:31;2.17;;;1.93;;
9958;SDS011;5019;48.012;7.812;2023-05-09T00:09:58;1.83;;;1.53;;
9958;SDS011;5019;48.012;7.812;2023-05-09T00:12:25;2.77;;;1.70;;
9958;SDS011;5019;48.012;7.812;2023-05-09T00:14:52;2.20;;;1.80;;
9958;SDS011;5019;48.012;7.812;2023-05-09T00:17:19;2.10;;;1.90;;
9958;SDS011;5019;48.012;7.812;2023-05-09T00:19:46;2.90;;;2.17;;
9958;SDS011;5019;48.012;7.812;2023-05-09T00:22:12;1.67;;;1.50;;
9958;SDS011;5019;48.012;7.812;2023-05-09T00:24:39;2.57;;;1.77;;
9958;SDS011;5019;48.012;7.812;2023-05-09T00:27:05;5.80;;;1.60;;
9958;SDS011;5019;48.012;7.812;2023-05-09T00:29:31;1.87;;;1.40;;
9958;SDS011;5019;48.012;7.812;2023-05-09T00:31:57;2.03;;;1.80;;
9958;SDS011;5019;48.012;7.812;2023-05-09T00:34:23;2.50;;;1.80;;
9958;SDS011;5019;48.012;7.812;2023-05-09T00:36:49;2.00;;;1.80;;
9958;SDS011;5019;48.012;7.812;2023-05-09T00:39:15;1.73;;;1.63;;
9958;SDS011;5019;48.012;7.812;2023-05-09T00:41:41;1.63;;;1.50;;
9958;SDS011;5019;48.012;7.812;2023-05-09T00:44:07;1.67;;;1.53;;
9958;SDS011;5019;48.012;7.812;2023-05-09T00:46:33;2.90;;;1.77;;
9958;SDS011;5019;48.012;7.812;2023-05-09T00:48:59;1.90;;;1.50;;
9958;SDS011;5019;48.012;7.812;2023-05-09T00:51:25;1.67;;;1.57;;
9958;SDS011;5019;48.012;7.812;2023-05-09T00:53:52;2.77;;;1.90;;
9958;SDS011;5019;48.012;7.812;2023-05-09T00:56:18;2.20;;;1.93;;
9958;SDS011;5019;48.012;7.812;2023-05-09T00:58:45;1.70;;;1.60;;
9958;SDS011;5019;48.012;7.812;2023-05-09T01:01:12;1.57;;;1.47;;
9958;SDS011;5019;48.012;7.812;2023-05-09T01:03:38;2.40;;;1.80;;
9958;SDS011;5019;48.012;7.812;2023-05-09T01:08:45;1.40;;;1.30;;
9958;SDS011;5019;48.012;7.812;2023-05-09T01:11:19;1.53;;;1.40;;
9958;SDS011;5019;48.012;7.812;2023-05-09T01:13:49;2.77;;;1.63;;
9958;SDS011;5019;48.012;7.812;2023-05-09T01:16:22;3.00;;;1.77;;
9958;SDS011;5019;48.012;7.812;2023-05-09T01:19:02;1.70;;;1.60;;
9958;SDS011;5019;48.012;7.812;2023-05-09T01:21:33;2.40;;;1.70;;
9958;SDS011;5019;48.012;7.812;2023-05-09T01:31:52;1.80;;;1.63;;
9958;SDS011;5019;48.012;7.812;2023-05-09T01:34:19;3.00;;;1.90;;
9958;SDS011;5019;48.012;7.812;2023-05-09T01:36:47;1.60;;;1.50;;
9958;SDS011;5019;48.012;7.812;2023-05-09T01:39:14;1.90;;;1.73;;
9958;SDS011;5019;48.012;7.812;2023-05-09T01:41:42;1.77;;;1.67;;
9958;SDS011;5019;48.012;7.812;2023-05-09T01:44:08;2.47;;;1.90;;
9958;SDS011;5019;48.012;7.812;2023-05-09T01:46:36;1.73;;;1.63;;
9958;SDS011;5019;48.012;7.812;2023-05-09T01:49:02;1.77;;;1.67;;
9958;SDS011;5019;48.012;7.812;2023-05-09T01:51:28;1.63;;;1.53;;
9958;SDS011;5019;48.012;7.812;2023-05-09T01:53:55;2.20;;;2.00;;
9958;SDS011;5019;48.012;7.812;2023-05-09T01:56:22;2.93;;;1.33;;
9958;SDS011;5019;48.012;7.812;2023-05-09T01:58:49;1.83;;;1.73;;
9958;SDS011;5019;48.012;7.812;2023-05-09T02:01:15;2.10;;;1.90;;
9958;SDS011;5019;48.012;7.812;2023-05-09T02:03:42;1.97;;;1.60;;
9958;SDS011;5019;48.012;7.812;2023-05-09T02:06:10;2.17;;;2.07;;
9958;SDS011;5019;48.012;7.812;2023-05-09T02:08:36;2.07;;;1.87;;
9958;SDS011;5019;48.012;7.812;2023-05-09T02:11:02;2.07;;;1.60;;
9958;SDS011;5019;48.012;7.812;2023-05-09T02:13:28;2.83;;;1.47;;
9958;SDS011;5019;48.012;7.812;2023-05-09T02:15:54;2.17;;;1.87;;
9958;SDS011;5019;48.012;7.812;2023-05-09T02:18:21;2.17;;;1.97;;
9958;SDS011;5019;48.012;7.812;2023-05-09T02:20:47;2.97;;;2.40;;
9958;SDS011;5019;48.012;7.812;2023-05-09T02:23:13;4.97;;;2.00;;
9958;SDS011;5019;48.012;7.812;2023-05-09T02:25:39;1.73;;;1.63;;
9958;SDS011;5019;48.012;7.812;2023-05-09T02:28:06;4.50;;;2.30;;
9958;SDS011;5019;48.012;7.812;2023-05-09T02:30:34;2.07;;;1.87;;
9958;SDS011;5019;48.012;7.812;2023-05-09T02:33:02;2.40;;;1.90;;
9958;SDS011;5019;48.012;7.812;2023-05-09T02:35:29;2.30;;;2.20;;
9958;SDS011;5019;48.012;7.812;2023-05-09T02:37:56;1.83;;;1.70;;
9958;SDS011;5019;48.012;7.812;2023-05-09T02:40:23;2.03;;;1.57;;
9958;SDS011;5019;48.012;7.812;2023-05-09T02:42:51;7.40;;;2.33;;
9958;SDS011;5019;48.012;7.812;2023-05-09T02:45:17;2.03;;;1.93;;
9958;SDS011;5019;48.012;7.812;2023-05-09T02:47:43;2.20;;;2.00;;
9958;SDS011;5019;48.012;7.812;2023-05-09T02:50:09;2.70;;;2.50;;
9958;SDS011;5019;48.012;7.812;2023-05-09T02:52:36;1.60;;;1.50;;
9958;SDS011;5019;48.012;7.812;2023-05-09T02:55:02;2.20;;;2.00;;
9958;SDS011;5019;48.012;7.812;2023-05-09T02:57:29;2.10;;;2.00;;
9958;SDS011;5019;48.012;7.812;2023-05-09T02:59:55;2.10;;;1.90;;
9958;SDS011;5019;48.012;7.812;2023-05-09T03:02:21;1.87;;;1.77;;
9958;SDS011;5019;48.012;7.812;2023-05-09T03:04:47;1.77;;;1.60;;
9958;SDS011;5019;48.012;7.812;2023-05-09T03:07:13;1.57;;;1.47;;
9958;SDS011;5019;48.012;7.812;2023-05-09T03:09:40;2.60;;;2.27;;
9958;SDS011;5019;48.012;7.812;2023-05-09T03:12:06;2.30;;;1.57;;
9958;SDS011;5019;48.012;7.812;2023-05-09T03:14:32;1.93;;;1.80;;
9958;SDS011;5019;48.012;7.812;2023-05-09T03:16:58;2.37;;;1.50;;
9958;SDS011;5019;48.012;7.812;2023-05-09T03:19:24;1.40;;;1.27;;
9958;SDS011;5019;48.012;7.812;2023-05-09T03:21:50;2.10;;;1.40;;
9958;SDS011;5019;48.012;7.812;2023-05-09T03:24:16;2.10;;;1.90;;
9958;SDS011;5019;48.012;7.812;2023-05-09T03:26:42;1.93;;;1.60;;
9958;SDS011;5019;48.012;7.812;2023-05-09T03:29:08;1.87;;;1.77;;
9958;SDS011;5019;48.012;7.812;2023-05-09T03:31:33;1.50;;;1.30;;
9958;SDS011;5019;48.012;7.812;2023-05-09T03:34:00;1.57;;;1.47;;
9958;SDS011;5019;48.012;7.812;2023-05-09T03:36:26;1.90;;;1.70;;
9958;SDS011;5019;48.012;7.812;2023-05-09T03:38:52;1.80;;;1.57;;
9958;SDS011;5019;48.012;7.812;2023-05-09T03:41:18;2.23;;;1.80;;
9958;SDS011;5019;48.012;7.812;2023-05-09T03:43:44;2.27;;;1.77;;
9958;SDS011;5019;48.012;7.812;2023-05-09T03:46:10;1.60;;;1.50;;
9958;SDS011;5019;48.012;7.812;2023-05-09T03:48:36;1.13;;;1.13;;
9958;SDS011;5019;48.012;7.812;2023-05-09T03:51:02;3.30;;;1.83;;
9958;SDS011;5019;48.012;7.812;2023-05-09T03:53:28;3.13;;;1.70;;
9958;SDS011;5019;48.012;7.812;2023-05-09T03:55:54;1.97;;;1.50;;
9958;SDS011;5019;48.012;7.812;2023-05-09T03:58:20;2.47;;;1.97;;
9958;SDS011;5019;48.012;7.812;2023-05-09T04:00:46;2.60;;;1.63;;
9958;SDS011;5019;48.012;7.812;2023-05-09T04:03:12;1.70;;;1.60;;
9958;SDS011;5019;48.012;7.812;2023-05-09T04:05:38;2.10;;;2.00;;
9958;SDS011;5019;48.012;7.812;2023-05-09T04:08:04;1.77;;;1.67;;
9958;SDS011;5019;48.012;7.812;2023-05-09T04:10:30;1.50;;;1.40;;
9958;SDS011;5019;48.012;7.812;2023-05-09T04:12:56;1.90;;;1.77;;
9958;SDS011;5019;48.012;7.812;2023-05-09T04:15:22;4.30;;;1.60;;
9958;SDS011;5019;48.012;7.812;2023-05-09T04:17:48;1.97;;;1.87;;
9958;SDS011;5019;48.012;7.812;2023-05-09T04:20:14;1.63;;;1.53;;
9958;SDS011;5019;48.012;7.812;2023-05-09T04:22:40;1.40;;;1.30;;
9958;SDS011;5019;48.012;7.812;2023-05-09T04:25:06;1.37;;;1.20;;
9958;SDS011;5019;48.012;7.812;2023-05-09T04:27:36;2.30;;;1.60;;
9958;SDS011;5019;48.012;7.812;2023-05-09T04:30:02;1.50;;;1.40;;
9958;SDS011;5019;48.012;7.812;2023-05-09T04:32:29;1.50;;;1.40;;
9958;SDS011;5019;48.012;7.812;2023-05-09T04:34:55;1.63;;;1.53;;
9958;SDS011;5019;48.012;7.812;2023-05-09T04:37:20;5.67;;;1.77;;
9958;SDS011;5019;48.012;7.812;2023-05-09T04:39:46;2.13;;;1.87;;
9958;SDS011;5019;48.012;7.812;2023-05-09T04:42:12;1.17;;;1.17;;
9958;SDS011;5019;48.012;7.812;2023-05-09T04:44:38;1.30;;;1.20;;
9958;SDS011;5019;48.012;7.812;2023-05-09T04:47:04;2.50;;;1.70;;
9958;SDS011;5019;48.012;7.812;2023-05-09T04:49:30;1.40;;;1.30;;
9958;SDS011;5019;48.012;7.812;2023-05-09T04:51:56;2.37;;;1.83;;
9958;SDS011;5019;48.012;7.812;2023-05-09T04:54:22;2.07;;;1.80;;
9958;SDS011;5019;48.012;7.812;2023-05-09T04:56:48;3.50;;;2.60;;
9958;SDS011;5019;48.012;7.812;2023-05-09T04:59:14;1.53;;;1.40;;
9958;SDS011;5019;48.012;7.812;2023-05-09T05:01:40;2.07;;;1.20;;
9958;SDS011;5019;48.012;7.812;2023-05-09T05:04:06;1.93;;;1.40;;
9958;SDS011;5019;48.012;7.812;2023-05-09T05:06:32;1.87;;;1.60;;
9958;SDS011;5019;48.012;7.812;2023-05-09T05:08:58;2.10;;;1.70;;
9958;SDS011;5019;48.012;7.812;2023-05-09T05:11:24;2.07;;;1.90;;
9958;SDS011;5019;48.012;7.812;2023-05-09T05:13:50;4.20;;;2.27;;
9958;SDS011;5019;48.012;7.812;2023-05-09T05:16:16;1.97;;;1.87;;
9958;SDS011;5019;48.012;7.812;2023-05-09T05:18:42;1.40;;;1.30;;
9958;SDS011;5019;48.012;7.812;2023-05-09T05:21:08;1.60;;;1.20;;
9958;SDS011;5019;48.012;7.812;2023-05-09T05:23:34;2.37;;;1.83;;
9958;SDS011;5019;48.012;7.812;2023-05-09T05:26:00;4.20;;;1.80;;
9958;SDS011;5019;48.012;7.812;2023-05-09T05:28:26;2.50;;;2.30;;
9958;SDS011;5019;48.012;7.812;2023-05-09T05:30:52;1.70;;;1.60;;
9958;SDS011;5019;48.012;7.812;2023-05-09T05:33:18;1.53;;;1.43;;
9958;SDS011;5019;48.012;7.812;2023-05-09T05:35:44;1.93;;;1.83;;
9958;SDS011;5019;48.012;7.812;2023-05-09T05:38:10;1.37;;;1.27;;
9958;SDS011;5019;48.012;7.812;2023-05-09T05:40:36;1.60;;;1.50;;
9958;SDS011;5019;48.012;7.812;2023-05-09T05:43:02;1.57;;;1.47;;
9958;SDS011;5019;48.012;7.812;2023-05-09T05:45:28;1.33;;;1.23;;
9958;SDS011;5019;48.012;7.812;2023-05-09T05:47:54;2.00;;;1.80;;
9958;SDS011;5019;48.012;7.812;2023-05-09T05:50:21;2.30;;;2.10;;
9958;SDS011;5019;48.012;7.812;2023-05-09T05:52:47;2.13;;;2.03;;
9958;SDS011;5019;48.012;7.812;2023-05-09T05:55:13;1.77;;;1.47;;
9958;SDS011;5019;48.012;7.812;2023-05-09T05:57:39;2.00;;;1.90;;
9958;SDS011;5019;48.012;7.812;2023-05-09T06:00:05;3.40;;;2.07;;
9958;SDS011;5019;48.012;7.812;2023-05-09T06:02:35;2.43;;;1.50;;
9958;SDS011;5019;48.012;7.812;2023-05-09T06:05:02;1.53;;;1.40;;
9958;SDS011;5019;48.012;7.812;2023-05-09T06:07:28;1.80;;;1.70;;
9958;SDS011;5019;48.012;7.812;2023-05-09T06:09:54;2.00;;;1.83;;
9958;SDS011;5019;48.012;7.812;2023-05-09T06:12:20;1.33;;;1.23;;
9958;SDS011;5019;48.012;7.812;2023-05-09T06:14:46;1.30;;;1.20;;
9958;SDS011;5019;48.012;7.812;2023-05-09T06:17:12;4.77;;;2.03;;
9958;SDS011;5019;48.012;7.812;2023-05-09T06:19:38;3.30;;;2.00;;
9958;SDS011;5019;48.012;7.812;2023-05-09T06:22:04;3.20;;;1.50;;
9958;SDS011;5019;48.012;7.812;2023-05-09T06:24:30;1.80;;;1.70;;
9958;SDS011;5019;48.012;7.812;2023-05-09T06:26:56;1.73;;;1.63;;
9958;SDS011;5019;48.012;7.812;2023-05-09T06:29:22;2.93;;;1.43;;
9958;SDS011;5019;48.012;7.812;2023-05-09T06:31:47;1.47;;;1.27;;
9958;SDS011;5019;48.012;7.812;2023-05-09T06:34:13;2.40;;;2.10;;
9958;SDS011;5019;48.012;7.812;2023-05-09T06:36:39;2.63;;;1.80;;
9958;SDS011;5019;48.012;7.812;2023-05-09T06:39:05;1.80;;;1.70;;
9958;SDS011;5019;48.012;7.812;2023-05-09T06:41:32;1.80;;;1.70;;
9958;SDS011;5019;48.012;7.812;2023-05-09T06:43:57;1.70;;;1.60;;
9958;SDS011;5019;48.012;7.812;2023-05-09T06:46:26;3.20;;;1.37;;
9958;SDS011;5019;48.012;7.812;2023-05-09T06:48:52;1.90;;;1.40;;
9958;SDS011;5019;48.012;7.812;2023-05-09T06:51:18;1.87;;;1.60;;
9958;SDS011;5019;48.012;7.812;2023-05-09T06:53:44;1.60;;;1.50;;
9958;SDS011;5019;48.012;7.812;2023-05-09T06:56:10;1.20;;;1.20;;
9958;SDS011;5019;48.012;7.812;2023-05-09T06:58:36;2.47;;;1.97;;
9958;SDS011;5019;48.012;7.812;2023-05-09T07:01:02;1.50;;;1.40;;
9958;SDS011;5019;48.012;7.812;2023-05-09T07:03:28;2.00;;;1.80;;
9958;SDS011;5019;48.012;7.812;2023-05-09T07:05:54;1.37;;;1.27;;
9958;SDS011;5019;48.012;7.812;2023-05-09T07:08:22;2.57;;;1.47;;
9958;SDS011;5019;48.012;7.812;2023-05-09T07:10:48;1.50;;;1.40;;
9958;SDS011;5019;48.012;7.812;2023-05-09T07:13:15;1.60;;;1.50;;
9958;SDS011;5019;48.012;7.812;2023-05-09T07:15:41;2.00;;;1.90;;
9958;SDS011;5019;48.012;7.812;2023-05-09T07:18:07;1.30;;;1.20;;
9958;SDS011;5019;48.012;7.812;2023-05-09T07:20:33;1.30;;;1.30;;
9958;SDS011;5019;48.012;7.812;2023-05-09T07:22:59;1.50;;;1.33;;
9958;SDS011;5019;48.012;7.812;2023-05-09T07:25:27;1.70;;;1.60;;
9958;SDS011;5019;48.012;7.812;2023-05-09T07:27:53;1.97;;;1.77;;
9958;SDS011;5019;48.012;7.812;2023-05-09T07:30:19;2.30;;;2.00;;
9958;SDS011;5019;48.012;7.812;2023-05-09T07:32:45;1.50;;;1.40;;
9958;SDS011;5019;48.012;7.812;2023-05-09T07:35:11;2.70;;;1.90;;
9958;SDS011;5019;48.012;7.812;2023-05-09T07:37:37;1.70;;;1.60;;
9958;SDS011;5019;48.012;7.812;2023-05-09T07:40:03;1.63;;;1.50;;
9958;SDS011;5019;48.012;7.812;2023-05-09T07:42:30;2.00;;;1.80;;
9958;SDS011;5019;48.012;7.812;2023-05-09T07:44:56;1.60;;;1.50;;
9958;SDS011;5019;48.012;7.812;2023-05-09T07:47:23;1.50;;;1.40;;
9958;SDS011;5019;48.012;7.812;2023-05-09T07:49:49;2.97;;;2.17;;
9958;SDS011;5019;48.012;7.812;2023-05-09T07:52:15;2.07;;;1.80;;
9958;SDS011;5019;48.012;7.812;2023-05-09T07:54:42;1.60;;;1.50;;
9958;SDS011;5019;48.012;7.812;2023-05-09T07:57:08;1.70;;;1.60;;
9958;SDS011;5019;48.012;7.812;2023-05-09T07:59:34;1.80;;;1.70;;
9958;SDS011;5019;48.012;7.812;2023-05-09T08:02:00;2.30;;;2.10;;
9958;SDS011;5019;48.012;7.812;2023-05-09T08:04:26;1.93;;;1.83;;
9958;SDS011;5019;48.012;7.812;2023-05-09T08:06:52;1.93;;;1.83;;
9958;SDS011;5019;48.012;7.812;2023-05-09T08:09:18;2.03;;;1.83;;
9958;SDS011;5019;48.012;7.812;2023-05-09T08:11:45;2.03;;;1.63;;
9958;SDS011;5019;48.012;7.812;2023-05-09T08:14:11;2.57;;;2.00;;
9958;SDS011;5019;48.012;7.812;2023-05-09T08:16:37;1.93;;;1.70;;
9958;SDS011;5019;48.012;7.812;2023-05-09T08:19:03;2.00;;;1.83;;
9958;SDS011;5019;48.012;7.812;2023-05-09T08:21:29;3.43;;;1.57;;
9958;SDS011;5019;48.012;7.812;2023-05-09T08:23:55;1.80;;;1.70;;
9958;SDS011;5019;48.012;7.812;2023-05-09T08:26:21;2.37;;;2.17;;
9958;SDS011;5019;48.012;7.812;2023-05-09T08:28:47;10.27;;;2.23;;
9958;SDS011;5019;48.012;7.812;2023-05-09T08:31:13;2.63;;;2.43;;
9958;SDS011;5019;48.012;7.812;2023-05-09T08:33:39;2.63;;;2.10;;
9958;SDS011;5019;48.012;7.812;2023-05-09T08:36:05;2.30;;;2.10;;
9958;SDS011;5019;48.012;7.812;2023-05-09T08:38:31;2.57;;;2.37;;
9958;SDS011;5019;48.012;7.812;2023-05-09T08:41:00;2.47;;;2.27;;
9958;SDS011;5019;48.012;7.812;2023-05-09T08:43:27;2.00;;;1.80;;
9958;SDS011;5019;48.012;7.812;2023-05-09T08:45:55;2.10;;;1.97;;
9958;SDS011;5019;48.012;7.812;2023-05-09T08:48:22;2.47;;;2.37;;
9958;SDS011;5019;48.012;7.812;2023-05-09T08:50:48;2.93;;;2.43;;
9958;SDS011;5019;48.012;7.812;2023-05-09T08:53:14;3.20;;;2.20;;
9958;SDS011;5019;48.012;7.812;2023-05-09T08:55:40;2.47;;;2.27;;
9958;SDS011;5019;48.012;7.812;2023-05-09T08:58:07;2.30;;;2.07;;
9958;SDS011;5019;48.012;7.812;2023-05-09T09:00:33;2.13;;;2.03;;
9958;SDS011;5019;48.012;7.812;2023-05-09T09:03:02;2.30;;;2.10;;
9958;SDS011;5019;48.012;7.812;2023-05-09T09:05:32;2.43;;;2.23;;
9958;SDS011;5019;48.012;7.812;2023-05-09T09:08:00;2.60;;;2.40;;
9958;SDS011;5019;48.012;7.812;2023-05-09T09:10:27;3.20;;;2.10;;
9958;SDS011;5019;48.012;7.812;2023-05-09T09:12:54;2.47;;;2.27;;
9958;SDS011;5019;48.012;7.812;2023-05-09T09:15:22;3.80;;;3.50;;
9958;SDS011;5019;48.012;7.812;2023-05-09T09:17:50;3.30;;;2.97;;
9958;SDS011;5019;48.012;7.812;2023-05-09T09:20:20;3.87;;;2.70;;
9958;SDS011;5019;48.012;7.812;2023-05-09T09:22:47;2.27;;;2.10;;
9958;SDS011;5019;48.012;7.812;2023-05-09T09:25:14;2.83;;;2.20;;
9958;SDS011;5019;48.012;7.812;2023-05-09T09:27:40;2.70;;;2.50;;
9958;SDS011;5019;48.012;7.812;2023-05-09T09:30:07;3.23;;;2.90;;
9958;SDS011;5019;48.012;7.812;2023-05-09T09:32:33;2.50;;;2.30;;
9958;SDS011;5019;48.012;7.812;2023-05-09T09:35:03;3.67;;;2.30;;
9958;SDS011;5019;48.012;7.812;2023-05-09T09:37:31;7.00;;;2.90;;
9958;SDS011;5019;48.012;7.812;2023-05-09T09:39:58;2.70;;;2.30;;
9958;SDS011;5019;48.012;7.812;2023-05-09T09:42:24;2.13;;;2.03;;
9958;SDS011;5019;48.012;7.812;2023-05-09T09:44:54;2.63;;;2.43;;
9958;SDS011;5019;48.012;7.812;2023-05-09T09:47:29;2.37;;;2.17;;
9958;SDS011;5019;48.012;7.812;2023-05-09T09:49:55;2.57;;;1.67;;
9958;SDS011;5019;48.012;7.812;2023-05-09T09:52:22;2.43;;;2.20;;
9958;SDS011;5019;48.012;7.812;2023-05-09T09:54:53;2.77;;;2.57;;
9958;SDS011;5019;48.012;7.812;2023-05-09T09:57:36;2.50;;;2.30;;
9958;SDS011;5019;48.012;7.812;2023-05-09T10:00:03;3.20;;;2.13;;
9958;SDS011;5019;48.012;7.812;2023-05-09T10:02:30;2.37;;;2.17;;
9958;SDS011;5019;48.012;7.812;2023-05-09T10:04:56;2.67;;;2.07;;
9958;SDS011;5019;48.012;7.812;2023-05-09T10:07:32;3.10;;;2.30;;
9958;SDS011;5019;48.012;7.812;2023-05-09T10:09:58;3.33;;;2.60;;
9958;SDS011;5019;48.012;7.812;2023-05-09T10:12:24;4.10;;;2.77;;
9958;SDS011;5019;48.012;7.812;2023-05-09T10:14:51;3.20;;;2.63;;
9958;SDS011;5019;48.012;7.812;2023-05-09T10:17:17;3.20;;;2.83;;
9958;SDS011;5019;48.012;7.812;2023-05-09T10:19:45;2.13;;;2.03;;
9958;SDS011;5019;48.012;7.812;2023-05-09T10:22:13;2.20;;;1.77;;
9958;SDS011;5019;48.012;7.812;2023-05-09T10:27:09;3.03;;;2.20;;
9958;SDS011;5019;48.012;7.812;2023-05-09T10:29:40;2.67;;;2.47;;
9958;SDS011;5019;48.012;7.812;2023-05-09T10:32:10;2.73;;;2.30;;
9958;SDS011;5019;48.012;7.812;2023-05-09T10:34:41;3.63;;;2.00;;
9958;SDS011;5019;48.012;7.812;2023-05-09T10:37:08;3.07;;;2.23;;
9958;SDS011;5019;48.012;7.812;2023-05-09T10:39:35;3.23;;;2.27;;
9958;SDS011;5019;48.012;7.812;2023-05-09T10:42:01;2.27;;;2.07;;
9958;SDS011;5019;48.012;7.812;2023-05-09T10:44:27;2.00;;;1.80;;
9958;SDS011;5019;48.012;7.812;2023-05-09T10:46:53;1.83;;;1.73;;
9958;SDS011;5019;48.012;7.812;2023-05-09T10:49:20;3.10;;;2.23;;
9958;SDS011;5019;48.012;7.812;2023-05-09T10:51:48;3.00;;;1.87;;
9958;SDS011;5019;48.012;7.812;2023-05-09T10:54:24;1.70;;;1.60;;
9958;SDS011;5019;48.012;7.812;2023-05-09T10:56:51;2.20;;;2.00;;
9958;SDS011;5019;48.012;7.812;2023-05-09T10:59:33;2.20;;;1.70;;
9958;SDS011;5019;48.012;7.812;2023-05-09T11:02:00;2.47;;;2.00;;
9958;SDS011;5019;48.012;7.812;2023-05-09T11:04:27;1.93;;;1.83;;
9958;SDS011;5019;48.012;7.812;2023-05-09T11:06:54;1.60;;;1.50;;
9958;SDS011;5019;48.012;7.812;2023-05-09T11:09:24;1.83;;;1.73;;
9958;SDS011;5019;48.012;7.812;2023-05-09T11:11:54;1.70;;;1.60;;
9958;SDS011;5019;48.012;7.812;2023-05-09T11:17:06;1.70;;;1.60;;
9958;SDS011;5019;48.012;7.812;2023-05-09T11:20:14;1.60;;;1.50;;
9958;SDS011;5019;48.012;7.812;2023-05-09T11:22:23;1.80;;;1.70;;
9958;SDS011;5019;48.012;7.812;2023-05-09T11:24:52;2.37;;;1.93;;
9958;SDS011;5019;48.012;7.812;2023-05-09T11:27:25;1.80;;;1.70;;
9958;SDS011;5019;48.012;7.812;2023-05-09T11:29:55;1.80;;;1.67;;
9958;SDS011;5019;48.012;7.812;2023-05-09T11:32:31;1.50;;;1.40;;
9958;SDS011;5019;48.012;7.812;2023-05-09T11:35:07;1.67;;;1.57;;
9958;SDS011;5019;48.012;7.812;2023-05-09T11:37:38;1.90;;;1.70;;
9958;SDS011;5019;48.012;7.812;2023-05-09T11:40:04;3.10;;;1.60;;
9958;SDS011;5019;48.012;7.812;2023-05-09T11:42:31;2.07;;;1.90;;
9958;SDS011;5019;48.012;7.812;2023-05-09T11:44:57;1.60;;;1.50;;
9958;SDS011;5019;48.012;7.812;2023-05-09T11:47:24;1.60;;;1.50;;
9958;SDS011;5019;48.012;7.812;2023-05-09T11:49:50;1.67;;;1.57;;
9958;SDS011;5019;48.012;7.812;2023-05-09T11:52:17;1.60;;;1.50;;
9958;SDS011;5019;48.012;7.812;2023-05-09T11:54:44;1.90;;;1.80;;
9958;SDS011;5019;48.012;7.812;2023-05-09T11:57:10;1.50;;;1.27;;
9958;SDS011;5019;48.012;7.812;2023-05-09T11:59:42;1.40;;;1.30;;
9958;SDS011;5019;48.012;7.812;2023-05-09T12:02:09;1.43;;;1.30;;
9958;SDS011;5019;48.012;7.812;2023-05-09T12:04:35;1.00;;;1.00;;
9958;SDS011;5019;48.012;7.812;2023-05-09T12:07:02;2.10;;;1.70;;
9958;SDS011;5019;48.012;7.812;2023-05-09T12:09:29;1.00;;;0.90;;
9958;SDS011;5019;48.012;7.812;2023-05-09T12:11:58;2.37;;;1.67;;
9958;SDS011;5019;48.012;7.812;2023-05-09T12:14:28;1.63;;;1.40;;
9958;SDS011;5019;48.012;7.812;2023-05-09T12:16:54;1.60;;;1.50;;
9958;SDS011;5019;48.012;7.812;2023-05-09T12:19:21;1.50;;;1.40;;
9958;SDS011;5019;48.012;7.812;2023-05-09T12:21:48;1.37;;;1.27;;
9958;SDS011;5019;48.012;7.812;2023-05-09T12:24:19;2.30;;;1.30;;
9958;SDS011;5019;48.012;7.812;2023-05-09T12:26:46;3.43;;;1.20;;
9958;SDS011;5019;48.012;7.812;2023-05-09T12:29:12;1.50;;;1.40;;
9958;SDS011;5019;48.012;7.812;2023-05-09T12:31:39;1.47;;;1.10;;
9958;SDS011;5019;48.012;7.812;2023-05-09T12:34:05;1.17;;;1.10;;
9958;SDS011;5019;48.012;7.812;2023-05-09T12:36:34;1.30;;;1.20;;
9958;SDS011;5019;48.012;7.812;2023-05-09T12:39:00;0.90;;;0.90;;
9958;SDS011;5019;48.012;7.812;2023-05-09T12:41:26;2.10;;;1.43;;
9958;SDS011;5019;48.012;7.812;2023-05-09T12:43:53;1.47;;;1.37;;
9958;SDS011;5019;48.012;7.812;2023-05-09T12:46:19;1.90;;;1.30;;
9958;SDS011;5019;48.012;7.812;2023-05-09T12:48:45;1.23;;;1.13;;
9958;SDS011;5019;48.012;7.812;2023-05-09T12:51:16;1.50;;;1.10;;
9958;SDS011;5019;48.012;7.812;2023-05-09T12:53:42;1.30;;;1.20;;
9958;SDS011;5019;48.012;7.812;2023-05-09T12:58:38;2.27;;;1.30;;
9958;SDS011;5019;48.012;7.812;2023-05-09T13:01:05;1.43;;;1.23;;
9958;SDS011;5019;48.012;7.812;2023-05-09T13:03:31;1.03;;;0.90;;
9958;SDS011;5019;48.012;7.812;2023-05-09T13:06:03;1.30;;;1.20;;
9958;SDS011;5019;48.012;7.812;2023-05-09T13:08:30;1.37;;;1.27;;
9958;SDS011;5019;48.012;7.812;2023-05-09T13:10:57;1.00;;;0.90;;
9958;SDS011;5019;48.012;7.812;2023-05-09T13:13:24;1.67;;;1.57;;
9958;SDS011;5019;48.012;7.812;2023-05-09T13:15:51;1.03;;;0.93;;
9958;SDS011;5019;48.012;7.812;2023-05-09T13:18:17;1.43;;;1.33;;
9958;SDS011;5019;48.012;7.812;2023-05-09T13:20:43;1.27;;;1.10;;
9958;SDS011;5019;48.012;7.812;2023-05-09T13:23:09;1.50;;;1.40;;
9958;SDS011;5019;48.012;7.812;2023-05-09T13:25:35;3.33;;;1.43;;
9958;SDS011;5019;48.012;7.812;2023-05-09T13:28:01;1.23;;;1.13;;
9958;SDS011;5019;48.012;7.812;2023-05-09T13:30:27;2.47;;;1.37;;
9958;SDS011;5019;48.012;7.812;2023-05-09T13:32:53;1.03;;;1.03;;
9958;SDS011;5019;48.012;7.812;2023-05-09T13:35:19;1.47;;;1.10;;
9958;SDS011;5019;48.012;7.812;2023-05-09T13:37:45;1.77;;;1.67;;
9958;SDS011;5019;48.012;7.812;2023-05-09T13:40:11;1.20;;;1.10;;
9958;SDS011;5019;48.012;7.812;2023-05-09T13:42:37;1.43;;;1.20;;
9958;SDS011;5019;48.012;7.812;2023-05-09T13:45:04;1.50;;;1.40;;
9958;SDS011;5019;48.012;7.812;2023-05-09T13:47:30;1.40;;;1.20;;
9958;SDS011;5019;48.012;7.812;2023-05-09T13:49:56;3.17;;;2.00;;
9958;SDS011;5019;48.012;7.812;2023-05-09T13:52:22;1.30;;;1.20;;
9958;SDS011;5019;48.012;7.812;2023-05-09T13:54:48;1.10;;;1.00;;
9958;SDS011;5019;48.012;7.812;2023-05-09T13:57:14;1.53;;;1.43;;
9958;SDS011;5019;48.012;7.812;2023-05-09T13:59:41;1.57;;;1.27;;
9958;SDS011;5019;48.012;7.812;2023-05-09T14:02:07;1.73;;;1.63;;
9958;SDS011;5019;48.012;7.812;2023-05-09T14:04:35;2.77;;;1.13;;
9958;SDS011;5019;48.012;7.812;2023-05-09T14:07:01;1.73;;;1.63;;
9958;SDS011;5019;48.012;7.812;2023-05-09T14:09:27;1.00;;;0.90;;
9958;SDS011;5019;48.012;7.812;2023-05-09T14:11:54;1.23;;;1.13;;
9958;SDS011;5019;48.012;7.812;2023-05-09T14:14:21;2.33;;;1.93;;
9958;SDS011;5019;48.012;7.812;2023-05-09T14:16:47;2.10;;;2.00;;
9958;SDS011;5019;48.012;7.812;2023-05-09T14:19:13;1.70;;;1.60;;
9958;SDS011;5019;48.012;7.812;2023-05-09T14:21:40;1.20;;;1.10;;
9958;SDS011;5019;48.012;7.812;2023-05-09T14:24:10;1.83;;;1.67;;
9958;SDS011;5019;48.012;7.812;2023-05-09T14:26:37;1.83;;;1.20;;
9958;SDS011;5019;48.012;7.812;2023-05-09T14:29:03;1.43;;;1.30;;
9958;SDS011;5019;48.012;7.812;2023-05-09T14:31:30;1.80;;;1.70;;
9958;SDS011;5019;48.012;7.812;2023-05-09T14:33:56;1.60;;;1.43;;
9958;SDS011;5019;48.012;7.812;2023-05-09T14:36:24;2.20;;;1.70;;
9958;SDS011;5019;48.012;7.812;2023-05-09T14:38:50;1.67;;;1.50;;
9958;SDS011;5019;48.012;7.812;2023-05-09T14:41:16;1.60;;;1.47;;
9958;SDS011;5019;48.012;7.812;2023-05-09T14:43:42;1.53;;;1.43;;
9958;SDS011;5019;48.012;7.812;2023-05-09T14:46:08;1.67;;;1.57;;
9958;SDS011;5019;48.012;7.812;2023-05-09T14:48:34;1.47;;;1.37;;
9958;SDS011;5019;48.012;7.812;2023-05-09T14:51:00;1.90;;;1.80;;
9958;SDS011;5019;48.012;7.812;2023-05-09T14:53:27;1.53;;;1.43;;
9958;SDS011;5019;48.012;7.812;2023-05-09T14:55:53;2.97;;;2.33;;
9958;SDS011;5019;48.012;7.812;2023-05-09T14:58:20;2.70;;;1.87;;
9958;SDS011;5019;48.012;7.812;2023-05-09T15:00:46;6.80;;;2.40;;
9958;SDS011;5019;48.012;7.812;2023-05-09T15:03:12;2.53;;;2.30;;
9958;SDS011;5019;48.012;7.812;2023-05-09T15:05:39;2.60;;;2.40;;
9958;SDS011;5019;48.012;7.812;2023-05-09T15:08:05;2.50;;;2.30;;
9958;SDS011;5019;48.012;7.812;2023-05-09T15:10:31;3.40;;;2.37;;
9958;SDS011;5019;48.012;7.812;2023-05-09T15:12:57;2.57;;;2.37;;
9958;SDS011;5019;48.012;7.812;2023-05-09T15:15:23;3.10;;;2.67;;
9958;SDS011;5019;48.012;7.812;2023-05-09T15:17:50;2.60;;;2.40;;
9958;SDS011;5019;48.012;7.812;2023-05-09T15:20:16;1.90;;;1.63;;
9958;SDS011;5019;48.012;7.812;2023-05-09T15:22:43;1.60;;;1.50;;
9958;SDS011;5019;48.012;7.812;2023-05-09T15:25:09;3.30;;;1.97;;
9958;SDS011;5019;48.012;7.812;2023-05-09T15:27:36;2.50;;;1.77;;
9958;SDS011;5019;48.012;7.812;2023-05-09T15:30:02;2.53;;;2.00;;